Data for 09/10/2010

Time Sea-Level Adjusted Pressure Absolute Pressure Temperature Relative Humidity Dew Point   
(mb) (inHg) (mb) (inHg) (C) (F) (%) (C) (F)
00:05 1014 29.94 843 24.89 6.7 44.1 90 5.1 41.3
00:10 1014 29.94 843 24.89 6.8 44.3 89 5.1 41.1
00:15 1014 29.94 843 24.89 6.8 44.3 90 5.2 41.4
00:20 1014 29.94 843 24.89 6.8 44.2 90 5.2 41.4
00:25 1014 29.94 843 24.89 6.8 44.2 90 5.3 41.5
00:30 1014 29.94 843 24.89 6.8 44.2 89 5.1 41.2
00:35 1014 29.94 843 24.89 6.7 44.1 89 5.1 41.2
00:40 1014 29.94 843 24.89 6.6 43.9 90 5.1 41.1
00:45 1014 29.94 843 24.89 6.6 43.8 89 4.9 40.9
00:50 1014 29.94 843 24.89 6.5 43.7 89 4.9 40.8
00:55 1014 29.94 843 24.89 6.5 43.7 88 4.7 40.4
01:00 1014 29.94 843 24.89 6.5 43.7 88 4.6 40.3
01:05 1014 29.94 843 24.89 6.5 43.7 87 4.5 40.2
01:10 1014 29.94 843 24.89 6.5 43.7 87 4.5 40.1
01:15 1014 29.94 843 24.89 6.5 43.7 86 4.4 39.9
01:20 1014 29.94 843 24.89 6.5 43.6 87 4.4 40
01:25 1014 29.94 843 24.89 6.5 43.7 87 4.4 40
01:30 1014 29.94 843 24.89 6.4 43.6 87 4.4 40
01:35 1014 29.94 843 24.89 6.4 43.6 86 4.3 39.7
01:40 1014 29.94 843 24.89 6.5 43.7 86 4.4 39.9
01:45 1014 29.94 843 24.89 6.5 43.7 86 4.3 39.7
01:50 1014 29.94 843 24.89 6.5 43.7 85 4.2 39.5
01:55 1014 29.94 843 24.89 6.6 43.8 85 4.3 39.7
02:00 1014 29.94 843 24.89 6.6 43.9 83 4 39.1
02:05 1014 29.94 843 24.89 6.7 44.1 83 4 39.2
02:10 1014 29.94 843 24.89 6.8 44.3 82 4 39.1
02:15 1014 29.94 843 24.89 6.9 44.4 81 3.8 38.9
02:20 1014 29.94 843 24.89 6.9 44.5 81 4 39.1
02:25 1014 29.94 843 24.89 7 44.5 80 3.8 38.9
02:30 1014 29.94 843 24.89 7 44.6 80 3.9 39
02:35 1014 29.94 843 24.89 7.1 44.7 79 3.7 38.7
02:40 1014 29.94 844 24.92 7.2 44.9 79 3.8 38.8
02:45 1014 29.94 844 24.92 7.2 45 78 3.7 38.6
02:50 1014 29.94 844 24.92 7.3 45.2 78 3.7 38.6
02:55 1014 29.94 844 24.92 7.4 45.3 76 3.4 38.2
03:00 1014 29.94 844 24.92 7.5 45.4 77 3.7 38.7
03:05 1014 29.94 844 24.92 7.4 45.4 76 3.6 38.4
03:10 1015 29.97 844 24.92 7.5 45.4 76 3.5 38.4
03:15 1015 29.97 844 24.92 7.5 45.6 76 3.6 38.4
03:20 1015 29.97 844 24.92 7.5 45.6 76 3.6 38.5
03:25 1015 29.97 844 24.92 7.5 45.6 76 3.6 38.4
03:30 1015 29.97 844 24.92 7.6 45.6 76 3.5 38.4
03:35 1015 29.97 844 24.92 7.6 45.7 75 3.5 38.4
03:40 1015 29.97 844 24.92 7.6 45.7 75 3.5 38.3
03:45 1015 29.97 844 24.92 7.7 45.8 75 3.6 38.4
03:50 1015 29.97 844 24.92 7.7 45.8 76 3.7 38.7
03:55 1015 29.97 844 24.92 7.7 45.9 75 3.5 38.3
04:00 1015 29.97 844 24.92 7.8 46 74 3.5 38.3
04:05 1015 29.97 844 24.92 7.8 46 75 3.7 38.7
04:10 1015 29.97 844 24.92 7.8 46 75 3.7 38.6
04:15 1015 29.97 844 24.92 7.7 45.8 77 3.8 38.9
04:20 1015 29.97 844 24.92 7.6 45.6 78 4 39.2
04:25 1015 29.97 844 24.92 7.6 45.7 77 3.9 39
04:30 1015 29.97 844 24.92 7.5 45.6 81 4.5 40.2
04:35 1015 29.97 845 24.95 7.3 45.1 83 4.5 40.1
04:40 1015 29.97 844 24.92 7.1 44.7 83 4.4 39.9
04:45 1015 29.97 845 24.95 6.9 44.5 81 3.9 39
04:50 1015 29.97 845 24.95 6.9 44.4 81 3.8 38.9
04:55 1015 29.97 845 24.95 6.9 44.4 80 3.6 38.6
05:00 1015 29.97 845 24.95 7.1 44.8 79 3.6 38.5
05:05 1016 30 845 24.95 7.2 44.9 80 3.9 39
05:10 1016 30 845 24.95 7.1 44.9 81 4.1 39.3
05:15 1016 30 845 24.95 7 44.6 80 3.8 38.9
05:20 1016 30 845 24.95 7 44.6 80 3.8 38.9
05:25 1016 30 845 24.95 7.1 44.8 81 4 39.2
05:30 1016 30 845 24.95 7.1 44.7 80 3.8 38.8
05:35 1016 30 845 24.95 7.1 44.8 79 3.8 38.8
05:40 1016 30 845 24.95 7.2 44.9 77 3.5 38.3
05:45 1016 30 845 24.95 7.3 45.1 77 3.5 38.3
05:50 1016 30 845 24.95 7.3 45.1 78 3.7 38.7
05:55 1016 30 845 24.95 7.2 45 78 3.7 38.6
06:00 1016 30 845 24.95 7.2 45 78 3.7 38.7
06:05 1016 30 845 24.95 7.2 44.9 79 3.8 38.9
06:10 1016 30 845 24.95 7.1 44.8 79 3.8 38.9
06:15 1016 30 845 24.95 7.1 44.8 80 3.9 39.1
06:20 1016 30 845 24.95 7.1 44.7 80 3.8 38.9
06:25 1016 30 845 24.95 7.2 44.9 78 3.6 38.4
06:30 1016 30 845 24.95 7.3 45.1 79 3.8 38.8
06:35 1016 30 845 24.95 7.2 44.9 79 3.8 38.8
06:40 1016 30 845 24.95 7.1 44.7 80 3.8 38.8
06:45 1016 30 845 24.95 7 44.6 80 3.8 38.9
06:50 1016 30 845 24.95 6.9 44.5 79 3.5 38.3
06:55 1016 30 845 24.95 7.1 44.7 76 3.2 37.8
07:00 1016 30 846 24.98 7.3 45.1 76 3.3 38
07:05 1016 30 846 24.98 7.3 45.1 75 3.2 37.8
07:10 1016 30 846 24.98 7.3 45.1 76 3.2 37.8
07:15 1016 30 846 24.98 7.1 44.8 77 3.3 38
07:20 1016 30 846 24.98 7.1 44.8 77 3.4 38.1
07:25 1016 30 846 24.98 7.1 44.8 77 3.4 38.1
07:30 1016 30 846 24.98 7.1 44.8 77 3.3 38
07:35 1017 30.03 846 24.98 7.2 44.9 77 3.4 38.1
07:40 1017 30.03 846 24.98 7.2 45 76 3.3 38
07:45 1017 30.03 846 24.98 7.3 45.1 76 3.4 38.1
07:50 1017 30.03 846 24.98 7.4 45.3 76 3.4 38.1
07:55 1017 30.03 846 24.98 7.5 45.6 75 3.4 38
08:00 1017 30.03 846 24.98 7.6 45.6 74 3.2 37.8
08:05 1017 30.03 846 24.98 7.6 45.7 74 3.2 37.8
08:10 1017 30.03 846 24.98 7.6 45.6 74 3.3 38
08:15 1017 30.03 846 24.98 7.5 45.6 75 3.3 38
08:20 1017 30.03 846 24.98 7.6 45.6 74 3.3 37.9
08:25 1017 30.03 846 24.98 7.6 45.7 74 3.3 38
08:30 1017 30.03 846 24.98 7.7 45.8 74 3.3 38
08:35 1017 30.03 846 24.98 7.7 45.9 74 3.5 38.3
08:40 1017 30.03 846 24.98 7.8 46.1 72 3.2 37.7
08:45 1017 30.03 846 24.98 8.1 46.5 73 3.4 38.2
08:50 1017 30.03 846 24.98 8.4 47 72 3.7 38.7
08:55 1017 30.03 846 24.98 8.6 47.4 73 4 39.2
09:00 1017 30.03 846 24.98 8.7 47.7 72 4 39.2
09:05 1017 30.03 847 25.01 8.7 47.7 74 4.4 40
09:10 1017 30.03 847 25.01 8.7 47.7 76 4.8 40.7
09:15 1017 30.03 847 25.01 8.7 47.6 74 4.3 39.8
09:20 1017 30.03 847 25.01 8.7 47.7 72 3.9 39
09:25 1017 30.03 847 25.01 8.8 47.8 71 3.9 39
09:30 1017 30.03 847 25.01 9 48.2 70 3.9 39
09:35 1017 30.03 847 25.01 9.1 48.4 73 4.6 40.2
09:40 1018 30.06 847 25.01 9.2 48.6 72 4.4 40
09:45 1018 30.06 847 25.01 9.4 48.8 72 4.5 40.2
09:50 1018 30.06 847 25.01 9.4 48.9 71 4.5 40.1
09:55 1018 30.06 847 25.01 9.4 48.8 77 5.5 41.8
10:00 1018 30.06 847 25.01 9.1 48.4 77 5.3 41.6
10:05 1018 30.06 847 25.01 9.1 48.3 75 5 40.9
10:10 1018 30.06 847 25.01 9.1 48.3 76 5.1 41.2
10:15 1018 30.06 847 25.01 9.1 48.4 76 5.2 41.4
10:20 1018 30.06 847 25.01 9.2 48.6 77 5.3 41.6
10:25 1018 30.06 847 25.01 9.1 48.4 78 5.5 41.9
10:30 1018 30.06 847 25.01 9.1 48.3 80 5.8 42.4
10:35 1018 30.06 847 25.01 9 48.1 80 5.7 42.3
10:40 1018 30.06 847 25.01 9.1 48.3 78 5.5 41.8
10:45 1018 30.06 848 25.04 9.3 48.7 76 5.3 41.6
10:50 1018 30.06 848 25.04 9.3 48.8 77 5.5 41.8
10:55 1018 30.06 848 25.04 9.2 48.5 76 5.2 41.4
11:00 1018 30.06 848 25.04 9.1 48.4 76 5.1 41.2
11:05 1018 30.06 848 25.04 9.2 48.6 76 5.2 41.4
11:10 1018 30.06 848 25.04 9.4 48.9 74 5.1 41.2
11:15 1019 30.09 848 25.04 9.3 48.8 76 5.3 41.5
11:20 1019 30.09 848 25.04 8.8 47.8 80 5.5 41.9
11:25 1019 30.09 848 25.04 8.7 47.6 80 5.4 41.6
11:30 1019 30.09 848 25.04 8.7 47.6 78 5.1 41.1
11:35 1019 30.09 848 25.04 8.7 47.6 72 4 39.1
11:40 1019 30.09 848 25.04 9.3 48.7 72 4.5 40.2
11:45 1019 30.09 848 25.04 9.7 49.5 72 4.9 40.8
11:50 1019 30.09 848 25.04 10 50.1 71 5.1 41.1
11:55 1019 30.09 848 25.04 10.2 50.4 74 5.9 42.7
12:00 1019 30.09 848 25.04 10 50 76 5.9 42.7
12:05 1019 30.09 848 25.04 9.6 49.4 78 6.1 42.9
12:10 1019 30.09 848 25.04 9.7 49.5 79 6.4 43.4
12:15 1019 30.09 848 25.04 10 49.9 74 5.5 41.9
12:20 1019 30.09 848 25.04 10.3 50.5 74 5.9 42.6
12:25 1019 30.09 848 25.04 10.5 50.8 74 6.1 43.1
12:30 1019 30.09 848 25.04 10.1 50.1 75 5.9 42.6
12:35 1019 30.09 848 25.04 9.4 48.8 72 4.6 40.2
12:40 1019 30.09 848 25.04 8.8 47.9 65 2.5 36.6
12:45 1019 30.09 848 25.04 8.5 47.4 72 3.8 38.9
12:50 1019 30.09 848 25.04 8 46.4 72 3.3 38
12:55 1019 30.09 848 25.04 8 46.3 75 3.8 38.9
13:00 1019 30.09 848 25.04 8.4 47 72 3.6 38.4
13:05 1019 30.09 848 25.04 8.9 48 73 4.3 39.8
13:10 1019 30.09 848 25.04 9.3 48.7 73 4.8 40.6
13:15 1019 30.09 848 25.04 9.7 49.5 74 5.3 41.6
13:20 1019 30.09 848 25.04 10.2 50.4 71 5.2 41.4
13:25 1019 30.09 848 25.04 10.6 51 70 5.4 41.7
13:30 1019 30.09 848 25.04 10.8 51.4 67 5 41
13:35 1019 30.09 848 25.04 11.2 52.2 70 5.9 42.6
13:40 1019 30.09 848 25.04 11.6 52.8 64 5.1 41.2
13:45 1019 30.09 848 25.04 11.7 53.1 63 5 41.1
13:50 1019 30.09 848 25.04 11.6 52.9 60 4.1 39.4
13:55 1019 30.09 848 25.04 11.4 52.6 59 3.8 38.8
14:00 1019 30.09 848 25.04 12 53.6 59 4.2 39.6
14:05 1019 30.09 848 25.04 12.5 54.6 57 4.2 39.5
14:10 1019 30.09 848 25.04 13.4 56 52 3.7 38.6
14:15 1019 30.09 848 25.04 13.2 55.8 52 3.7 38.7
14:20 1019 30.09 848 25.04 12.9 55.2 52 3.3 38
14:25 1019 30.09 848 25.04 13.2 55.8 52 3.7 38.7
14:30 1019 30.09 848 25.04 13.3 55.9 51 3.5 38.4
14:35 1019 30.09 848 25.04 13.1 55.6 52 3.6 38.6
14:40 1019 30.09 848 25.04 13.1 55.6 55 4.4 39.8
14:45 1019 30.09 848 25.04 13.1 55.5 52 3.5 38.3
14:50 1019 30.09 848 25.04 13 55.4 52 3.5 38.3
14:55 1019 30.09 848 25.04 13 55.4 50 2.9 37.2
15:00 1019 30.09 848 25.04 13.4 56 46 1.9 35.4
15:05 1019 30.09 848 25.04 14.4 58 43 2 35.7
15:10 1019 30.09 848 25.04 14.9 58.7 41 1.8 35.3
15:15 1019 30.09 848 25.04 15.1 59.1 41 2.1 35.8
15:20 1019 30.09 848 25.04 14.9 58.8 41 2 35.6
15:25 1019 30.09 848 25.04 14 57.3 43 1.6 34.9
15:30 1019 30.09 848 25.04 14.2 57.5 45 2.6 36.7
15:35 1019 30.09 848 25.04 13.9 57.1 45 2.4 36.3
15:40 1019 30.09 848 25.04 13.7 56.7 43 1.5 34.7
15:45 1019 30.09 848 25.04 13.5 56.3 44 1.7 35
15:50 1019 30.09 848 25.04 13.4 56.2 46 2.1 35.7
15:55 1019 30.09 848 25.04 13.5 56.3 45 2 35.5
16:00 1019 30.09 848 25.04 13.6 56.5 47 2.5 36.6
16:05 1019 30.09 848 25.04 13.7 56.7 46 2.4 36.4
16:10 1019 30.09 848 25.04 13.7 56.7 45 2.2 35.9
16:15 1019 30.09 848 25.04 13.9 56.9 45 2.3 36.2
16:20 1019 30.09 848 25.04 13.9 56.9 45 2.3 36.1
16:25 1019 30.09 848 25.04 13.8 56.9 47 2.9 37.2
16:30 1019 30.09 848 25.04 13.9 57 45 2.3 36.2
16:35 1019 30.09 848 25.04 14 57.3 46 2.6 36.6
16:40 1019 30.09 848 25.04 14.1 57.4 44 2.1 35.8
16:45 1019 30.09 848 25.04 14.1 57.4 43 1.9 35.4
16:50 1019 30.09 848 25.04 14.3 57.7 42 1.5 34.7
16:55 1019 30.09 848 25.04 14.6 58.2 41 1.6 34.9
17:00 1019 30.09 848 25.04 14.7 58.4 41 1.7 35
17:05 1019 30.09 848 25.04 14.5 58.2 43 2.2 35.9
17:10 1019 30.09 848 25.04 14.3 57.7 45 2.6 36.6
17:15 1019 30.09 848 25.04 14.3 57.8 46 2.8 37
17:20 1019 30.09 848 25.04 14.5 58.2 45 2.7 36.8
17:25 1019 30.09 848 25.04 14.4 58 44 2.5 36.4
17:30 1019 30.09 848 25.04 14.1 57.4 45 2.5 36.5
17:35 1019 30.09 848 25.04 14.1 57.3 45 2.4 36.3
17:40 1019 30.09 848 25.04 13.9 56.9 45 2.1 35.7
17:45 1019 30.09 848 25.04 13.8 56.8 46 2.6 36.6
17:50 1019 30.09 848 25.04 13.8 56.9 45 2.3 36.1
17:55 1019 30.09 848 25.04 14.1 57.3 45 2.4 36.3
18:00 1019 30.09 848 25.04 14.1 57.4 45 2.5 36.5
18:05 1019 30.09 848 25.04 14.6 58.3 44 2.6 36.6
18:10 1019 30.09 848 25.04 14.8 58.7 40 1.4 34.6
18:15 1019 30.09 848 25.04 14.8 58.7 41 1.9 35.5
18:20 1019 30.09 848 25.04 14.7 58.4 43 2.2 36
18:25 1019 30.09 848 25.04 14.5 58.2 43 2.3 36.2
18:30 1019 30.09 848 25.04 14.4 58 44 2.5 36.5
18:35 1019 30.09 848 25.04 14.2 57.5 43 1.9 35.5
18:40 1019 30.09 848 25.04 14.1 57.3 44 2.1 35.9
18:45 1019 30.09 848 25.04 14 57.2 45 2.4 36.3
18:50 1019 30.09 848 25.04 13.9 57 45 2.3 36.2
18:55 1019 30.09 848 25.04 13.7 56.7 46 2.5 36.5
19:00 1019 30.09 848 25.04 13.6 56.5 47 2.5 36.6
19:05 1019 30.09 848 25.04 13.6 56.4 48 2.9 37.3
19:10 1019 30.09 848 25.04 13.5 56.4 49 3 37.4
19:15 1019 30.09 848 25.04 13.4 56 49 2.9 37.2
19:20 1019 30.09 848 25.04 13.2 55.8 49 2.7 36.9
19:25 1019 30.09 848 25.04 13.1 55.5 51 3.2 37.7
19:30 1019 30.09 848 25.04 12.9 55.2 48 2.3 36.1
19:35 1019 30.09 848 25.04 12.7 54.9 49 2.4 36.3
19:40 1019 30.09 848 25.04 12.6 54.6 48 2 35.6
19:45 1019 30.09 848 25.04 12.4 54.4 50 2.2 36
19:50 1019 30.09 848 25.04 12.2 54 49 2 35.6
19:55 1019 30.09 849 25.07 12.1 53.7 49 1.7 35
20:00 1019 30.09 849 25.07 12 53.5 51 2.3 36.1
20:05 1019 30.09 849 25.07 11.8 53.2 51 2 35.6
20:10 1019 30.09 849 25.07 11.6 52.8 52 2.1 35.8
20:15 1020 30.12 849 25.07 11.2 52.2 52 1.8 35.2
20:20 1020 30.12 849 25.07 11.1 52 54 2.3 36.1
20:25 1020 30.12 849 25.07 11 51.7 52 1.5 34.7
20:30 1020 30.12 849 25.07 10.8 51.5 53 1.7 35.1
20:35 1020 30.12 849 25.07 10.8 51.4 52 1.4 34.5
20:40 1020 30.12 849 25.07 10.6 51.2 55 1.9 35.4
20:45 1020 30.12 849 25.07 10.4 50.8 52 1 33.8
20:50 1020 30.12 849 25.07 10.6 51.1 52 1.3 34.4
20:55 1020 30.12 849 25.07 10.4 50.7 55 1.8 35.2
21:00 1020 30.12 849 25.07 10.2 50.4 55 1.7 35.1
21:05 1020 30.12 849 25.07 10 50 55 1.5 34.8
21:10 1020 30.12 849 25.07 10.1 50.1 56 1.7 35.1
21:15 1020 30.12 849 25.07 9.8 49.7 57 1.8 35.3
21:20 1020 30.12 849 25.07 9.6 49.3 58 1.9 35.5
21:25 1020 30.12 849 25.07 9.5 49 62 2.6 36.7
21:30 1020 30.12 849 25.07 9 48.2 63 2.3 36.2
21:35 1020 30.12 849 25.07 8.9 47.9 64 2.4 36.3
21:40 1020 30.12 849 25.07 8.6 47.5 66 2.7 36.8
21:45 1020 30.12 850 25.1 8.4 47.2 67 2.6 36.7
21:50 1020 30.12 850 25.1 8.3 47 69 3 37.5
21:55 1020 30.12 850 25.1 8.2 46.7 70 3 37.4
22:00 1020 30.12 850 25.1 8.1 46.6 71 3.2 37.7
22:05 1020 30.12 850 25.1 8.1 46.5 71 3.1 37.6
22:10 1020 30.12 850 25.1 8 46.4 71 3.1 37.5
22:15 1020 30.12 850 25.1 8 46.3 71 3 37.5
22:20 1020 30.12 850 25.1 8 46.3 71 3 37.4
22:25 1020 30.12 850 25.1 7.9 46.2 71 3.1 37.5
22:30 1020 30.12 850 25.1 7.7 45.8 73 3.2 37.7
22:35 1020 30.12 850 25.1 7.5 45.4 74 3.1 37.5
22:40 1020 30.12 850 25.1 7.3 45.2 74 3 37.4
22:45 1020 30.12 850 25.1 7.2 45 74 2.9 37.1
22:50 1020 30.12 850 25.1 7.3 45.1 74 2.9 37.3
22:55 1020 30.12 850 25.1 7.3 45.1 73 2.8 37.1
23:00 1020 30.12 850 25.1 7.4 45.2 72 2.7 36.9
23:05 1020 30.12 850 25.1 7.4 45.2 72 2.7 36.9
23:10 1020 30.12 850 25.1 7.3 45.1 73 2.7 36.9
23:15 1020 30.12 850 25.1 7.2 44.9 72 2.5 36.5
23:20 1020 30.12 850 25.1 7.2 44.9 71 2.4 36.2
23:25 1020 30.12 850 25.1 7.2 45 72 2.5 36.5
23:30 1020 30.12 850 25.1 7.1 44.7 73 2.5 36.5
23:35 1020 30.12 850 25.1 6.8 44.2 75 2.7 36.8
23:40 1020 30.12 850 25.1 6.6 43.8 75 2.5 36.4
23:45 1020 30.12 850 25.1 6.5 43.6 75 2.4 36.2
23:50 1020 30.12 850 25.1 6.5 43.7 73 2.1 35.8
23:55 1020 30.12 850 25.1 6.8 44.2 71 1.9 35.5
24:00 1021 30.15 850 25.1 7 44.6 70 1.9 35.4